Time;durP1;ratioP1;P1;durP2;ratioP2;P2;SDS_P1;SDS_P2;PMS_P1;PMS_P2;Temp;Humidity;BMP_temperature;BMP_pressure;BME280_temperature;BME280_humidity;BME280_pressure;Samples;Min_cycle;Max_cycle;Signal;HPM_P1;HPM_P2
2022/03/03 00:02:19;;;;;;;3.03;2.13;;;17.90;28.00;20.60;93976.00;;;;10351048;28;46806;-64
2022/03/03 00:07:20;;;;;;;2.58;1.83;;;17.90;27.90;20.60;93967.00;;;;10350766;28;47193;-65
2022/03/03 00:12:21;;;;;;;2.83;1.55;;;17.90;28.10;20.60;93956.00;;;;10351305;28;46914;-65
2022/03/03 00:17:21;;;;;;;2.85;1.95;;;17.90;28.00;20.60;93961.00;;;;10334045;28;48041;-64
2022/03/03 00:22:22;;;;;;;2.67;1.88;;;17.90;28.00;20.60;93966.00;;;;10338226;28;48228;-64
2022/03/03 00:27:23;;;;;;;2.72;1.63;;;17.90;28.20;20.60;93957.00;;;;10356706;28;47185;-64
2022/03/03 00:32:23;;;;;;;3.53;2.22;;;17.90;27.90;20.60;93957.00;;;;10357291;28;45207;-65
2022/03/03 00:37:24;;;;;;;3.33;1.80;;;17.90;28.10;20.60;93943.00;;;;10356746;28;45534;-65
2022/03/03 00:42:25;;;;;;;3.83;1.70;;;17.90;28.10;20.60;93953.00;;;;10339404;28;48240;-64
2022/03/03 00:47:25;;;;;;;2.53;1.77;;;17.90;28.10;20.60;93958.00;;;;10339869;28;47174;-65
2022/03/03 00:52:26;;;;;;;1.95;1.50;;;17.90;27.90;20.60;93956.00;;;;10357790;28;45365;-65
2022/03/03 00:57:27;;;;;;;2.72;1.55;;;17.90;28.10;20.60;93959.00;;;;10356153;28;45725;-64
2022/03/03 01:02:27;;;;;;;2.70;1.60;;;17.90;28.10;20.50;93962.00;;;;10339869;28;47747;-65
2022/03/03 01:07:28;;;;;;;3.75;1.70;;;17.80;28.00;20.50;93960.00;;;;10357173;28;45214;-65
2022/03/03 01:12:29;;;;;;;3.17;2.03;;;17.80;27.90;20.50;93964.00;;;;10356964;28;45294;-64
2022/03/03 01:17:30;;;;;;;2.30;1.75;;;17.80;27.90;20.50;93946.00;;;;10338851;28;46899;-65
2022/03/03 01:22:31;;;;;;;2.40;1.88;;;17.80;28.00;20.50;93945.00;;;;10338921;28;48302;-65
2022/03/03 01:27:32;;;;;;;2.97;1.88;;;17.80;28.10;20.50;93934.00;;;;10356569;28;45203;-63
2022/03/03 01:32:33;;;;;;;2.67;1.50;;;17.90;28.10;20.60;93920.00;;;;10359963;23;45553;-62
2022/03/03 01:37:34;;;;;;;2.97;1.65;;;17.90;27.90;20.50;93930.00;;;;10314155;28;46787;-62
2022/03/03 01:42:35;;;;;;;2.67;1.60;;;17.90;28.00;20.60;93920.00;;;;10313514;28;47006;-63
2022/03/03 01:47:35;;;;;;;2.00;1.67;;;17.90;28.00;20.60;93931.00;;;;10330399;28;46061;-63
2022/03/03 01:52:36;;;;;;;2.58;1.75;;;17.90;28.10;20.50;93919.00;;;;10330215;28;45301;-62
2022/03/03 01:57:37;;;;;;;2.50;1.50;;;17.90;28.10;20.60;93925.00;;;;10329431;28;45313;-63
2022/03/03 02:02:38;;;;;;;2.55;1.63;;;17.90;28.00;20.60;93900.00;;;;10323355;28;45527;-63
2022/03/03 02:07:39;;;;;;;2.17;1.48;;;17.90;28.00;20.60;93905.00;;;;10328328;28;46582;-63
2022/03/03 02:12:39;;;;;;;2.10;1.42;;;17.90;28.10;20.60;93900.00;;;;10330309;28;45539;-63
2022/03/03 02:17:40;;;;;;;3.03;1.65;;;17.90;28.00;20.60;93896.00;;;;10314485;28;45690;-62
2022/03/03 02:22:41;;;;;;;2.88;1.77;;;17.90;28.00;20.60;93889.00;;;;10313816;28;45368;-62
2022/03/03 02:27:43;;;;;;;2.67;1.85;;;17.90;28.60;20.60;93894.00;;;;10314339;28;46382;-62
2022/03/03 02:32:45;;;;;;;2.33;1.60;;;17.90;28.00;20.60;93889.00;;;;10313650;28;46251;-62
2022/03/03 02:37:46;;;;;;;1.83;1.52;;;17.90;28.10;20.60;93878.00;;;;10328659;28;45593;-63
2022/03/03 02:42:52;;;;;;;2.05;1.45;;;17.90;28.00;20.60;93888.00;;;;10313232;28;46275;-63
2022/03/03 02:47:53;;;;;;;2.47;1.70;;;17.90;28.00;20.60;93877.00;;;;10328923;28;45303;-63
2022/03/03 02:52:57;;;;;;;2.40;1.60;;;17.90;27.90;20.60;93872.00;;;;10313076;28;45193;-63
2022/03/03 02:57:57;;;;;;;2.13;1.52;;;17.90;28.00;20.60;93875.00;;;;10312506;28;45303;-62
2022/03/03 03:02:58;;;;;;;1.95;1.35;;;17.90;27.90;20.60;93868.00;;;;10312840;28;46816;-64
2022/03/03 03:07:59;;;;;;;2.40;1.50;;;17.90;28.00;20.50;93862.00;;;;10311606;28;46697;-64
2022/03/03 03:13:00;;;;;;;3.03;1.65;;;17.80;28.10;20.50;93851.00;;;;10311469;28;47224;-63
2022/03/03 03:18:16;;;;;;;2.47;1.80;;;17.80;28.00;20.50;93860.00;;;;10327614;28;45384;-63
2022/03/03 03:23:20;;;;;;;2.10;1.40;;;17.80;28.10;20.50;93868.00;;;;10312705;28;45482;-64
2022/03/03 03:28:21;;;;;;;1.98;1.50;;;17.80;28.00;20.50;93867.00;;;;10311832;28;45371;-63
2022/03/03 03:33:22;;;;;;;2.33;1.50;;;17.80;28.00;20.50;93849.00;;;;10326602;28;45724;-63
2022/03/03 03:38:22;;;;;;;3.47;2.00;;;17.80;28.00;20.50;93849.00;;;;10310332;28;47087;-64
2022/03/03 03:43:23;;;;;;;2.78;1.73;;;17.80;28.00;20.50;93839.00;;;;10327195;28;45524;-63
2022/03/03 03:48:24;;;;;;;2.95;1.63;;;17.80;28.10;20.50;93836.00;;;;10311966;28;46804;-63
2022/03/03 03:53:25;;;;;;;2.63;1.67;;;17.80;28.00;20.50;93844.00;;;;10312440;28;45187;-64
2022/03/03 03:58:25;;;;;;;2.90;1.58;;;17.80;28.10;20.50;93840.00;;;;10316146;28;46688;-63
2022/03/03 04:03:26;;;;;;;3.03;1.80;;;17.80;28.00;20.50;93827.00;;;;10334611;28;46755;-63
2022/03/03 04:08:26;;;;;;;2.50;1.50;;;17.80;28.00;20.50;93837.00;;;;10319031;28;45466;-63
2022/03/03 04:13:27;;;;;;;2.90;1.90;;;17.80;28.00;20.50;93841.00;;;;10334090;28;45217;-63
2022/03/03 04:18:29;;;;;;;1.80;1.60;;;17.80;28.10;20.50;93835.00;;;;10333589;28;45143;-62
2022/03/03 04:23:29;;;;;;;2.35;1.83;;;17.80;28.10;20.50;93830.00;;;;10316637;28;47374;-63
2022/03/03 04:28:30;;;;;;;2.67;1.90;;;17.80;28.00;20.50;93832.00;;;;10316050;28;46957;-62
2022/03/03 04:33:31;;;;;;;2.47;1.70;;;17.80;28.00;20.50;93818.00;;;;10332288;28;45151;-62
2022/03/03 04:38:31;;;;;;;2.05;1.60;;;17.80;28.00;20.50;93831.00;;;;10317811;28;45252;-64
2022/03/03 04:43:32;;;;;;;1.90;1.40;;;17.80;27.90;20.50;93837.00;;;;10332450;28;45333;-64
2022/03/03 04:48:33;;;;;;;2.88;1.63;;;17.80;28.00;20.50;93832.00;;;;10332128;28;46472;-62
2022/03/03 04:53:33;;;;;;;2.75;1.90;;;17.80;28.00;20.50;93820.00;;;;10315315;28;47914;-64
2022/03/03 04:58:34;;;;;;;2.63;1.85;;;17.80;28.00;20.50;93816.00;;;;10316578;28;46049;-62
2022/03/03 05:03:35;;;;;;;2.15;1.50;;;17.80;27.90;20.50;93811.00;;;;10331954;28;45989;-63
2022/03/03 05:08:36;;;;;;;2.30;1.50;;;17.80;28.50;20.50;93804.00;;;;10331247;28;45334;-63
2022/03/03 05:13:37;;;;;;;1.90;1.52;;;17.90;28.00;20.60;93809.00;;;;10331334;28;46879;-62
2022/03/03 05:18:38;;;;;;;2.13;1.60;;;17.90;28.00;20.60;93811.00;;;;10331715;28;45194;-64
2022/03/03 05:23:38;;;;;;;1.77;1.38;;;18.00;28.00;20.70;93812.00;;;;10316259;28;45433;-64
2022/03/03 05:28:39;;;;;;;2.10;1.58;;;18.00;28.00;20.70;93799.00;;;;10331437;28;46691;-65
2022/03/03 05:33:41;;;;;;;2.78;1.60;;;18.10;28.40;20.70;93812.00;;;;10314155;28;47448;-63
2022/03/03 05:38:41;;;;;;;2.55;1.80;;;18.10;27.80;20.70;93788.00;;;;10330939;28;45211;-63
2022/03/03 05:43:42;;;;;;;2.47;1.73;;;18.10;27.80;20.80;93799.00;;;;10315391;28;45381;-64
2022/03/03 05:48:43;;;;;;;3.08;1.65;;;18.10;27.80;20.70;93803.00;;;;10330885;28;45183;-64
2022/03/03 05:53:45;;;;;;;2.95;1.88;;;18.10;27.70;20.70;93796.00;;;;10330711;28;45330;-64
2022/03/03 05:58:50;;;;;;;2.97;2.10;;;18.00;27.60;20.70;93808.00;;;;10330517;28;45535;-64
2022/03/03 06:03:52;;;;;;;3.20;1.90;;;18.00;27.60;20.60;93808.00;;;;10330488;28;45348;-65
2022/03/03 06:09:14;;;;;;;3.17;1.95;;;17.90;27.60;20.60;93807.00;;;;10330374;28;45137;-64
2022/03/03 06:14:23;;;;;;;2.17;1.73;;;17.90;27.60;20.60;93821.00;;;;10314679;28;45175;-64
2022/03/03 06:19:25;;;;;;;2.63;1.88;;;17.80;27.70;20.60;93815.00;;;;10328327;28;45267;-64
2022/03/03 06:24:25;;;;;;;3.00;2.05;;;17.90;27.60;20.60;93816.00;;;;10312972;28;46977;-63
2022/03/03 06:29:26;;;;;;;2.50;1.88;;;17.90;27.60;20.60;93807.00;;;;10314432;28;45304;-64
2022/03/03 06:34:27;;;;;;;2.80;2.10;;;17.90;27.60;20.60;93818.00;;;;10311816;28;46978;-64
2022/03/03 06:39:28;;;;;;;2.75;1.92;;;18.00;27.70;20.70;93828.00;;;;10328324;28;45375;-63
2022/03/03 06:44:28;;;;;;;2.28;1.67;;;18.00;27.60;20.70;93826.00;;;;10328823;28;45281;-64
2022/03/03 06:49:29;;;;;;;2.50;2.10;;;18.00;27.60;20.70;93807.00;;;;10328857;28;45227;-63
2022/03/03 06:54:33;;;;;;;2.83;1.90;;;18.10;27.70;20.70;93808.00;;;;10328831;28;45394;-64
2022/03/03 06:59:34;;;;;;;2.35;1.70;;;18.10;27.70;20.70;93784.00;;;;10327725;28;46011;-63
2022/03/03 07:04:35;;;;;;;2.78;2.00;;;18.10;27.60;20.70;93797.00;;;;10328272;28;45468;-63
2022/03/03 07:09:36;;;;;;;2.83;2.15;;;18.10;27.60;20.70;93790.00;;;;10328290;28;45110;-63
2022/03/03 07:14:37;;;;;;;2.95;2.15;;;18.10;27.50;20.70;93801.00;;;;10327608;28;45206;-63
2022/03/03 07:19:37;;;;;;;3.40;2.33;;;18.00;27.50;20.70;93797.00;;;;10311038;28;48196;-63
2022/03/03 07:25:05;;;;;;;3.63;2.42;;;18.00;27.60;20.60;93787.00;;;;10312203;28;45155;-63
2022/03/03 07:30:10;;;;;;;3.25;2.08;;;17.90;27.50;20.60;93802.00;;;;10314481;28;46205;-63
2022/03/03 07:35:14;;;;;;;3.70;2.42;;;17.90;27.50;20.50;93788.00;;;;10358935;23;47176;-64
2022/03/03 07:40:17;;;;;;;4.20;2.90;;;17.80;27.30;20.50;93784.00;;;;10355932;28;45221;-64
2022/03/03 07:45:17;;;;;;;4.82;2.97;;;17.80;27.30;20.50;93770.00;;;;10359167;28;45250;-63
2022/03/03 07:50:19;;;;;;;5.25;2.67;;;17.80;27.60;20.50;93780.00;;;;10360287;28;45432;-63
2022/03/03 07:55:20;;;;;;;4.53;3.20;;;17.80;27.50;20.50;93770.00;;;;10357977;28;45389;-64
2022/03/03 08:00:21;;;;;;;4.03;2.72;;;17.80;27.60;20.50;93765.00;;;;10354734;28;47223;-63
2022/03/03 08:05:22;;;;;;;5.22;3.10;;;17.80;27.60;20.50;93750.00;;;;10375243;28;46258;-64
2022/03/03 08:10:27;;;;;;;5.32;3.28;;;17.80;27.60;20.50;93763.00;;;;10375378;28;45735;-63
2022/03/03 08:15:27;;;;;;;4.90;3.60;;;17.90;27.60;20.60;93770.00;;;;10357973;28;47195;-62
2022/03/03 08:20:28;;;;;;;9.05;5.63;;;17.90;27.60;20.10;93768.00;;;;10359941;28;45373;-63
2022/03/03 08:25:31;;;;;;;5.15;3.67;;;17.40;27.40;20.30;93773.00;;;;10359153;28;45161;-63
2022/03/03 08:30:34;;;;;;;6.28;3.80;;;17.60;27.50;20.40;93760.00;;;;10374630;28;45885;-63
2022/03/03 08:35:39;;;;;;;4.88;3.55;;;17.70;27.40;20.40;93759.00;;;;10373570;28;45213;-63
2022/03/03 08:40:40;;;;;;;4.65;3.10;;;17.80;27.40;20.50;93760.00;;;;10373104;28;45590;-63
2022/03/03 08:45:41;;;;;;;4.38;3.10;;;17.90;27.40;20.50;93753.00;;;;10356952;28;47181;-62
2022/03/03 08:50:43;;;;;;;4.82;3.03;;;17.90;27.40;20.50;93762.00;;;;10358789;28;45207;-63
2022/03/03 08:55:43;;;;;;;5.50;3.08;;;17.90;27.50;20.50;93759.00;;;;10357947;28;45156;-63
2022/03/03 09:00:45;;;;;;;6.38;3.00;;;17.90;27.40;20.50;93753.00;;;;10336742;28;45304;-63
2022/03/03 09:05:46;;;;;;;6.93;2.55;;;17.90;27.60;20.50;93747.00;;;;10315872;28;45184;-63
2022/03/03 09:10:48;;;;;;;3.38;2.53;;;17.90;27.60;20.60;93731.00;;;;10315006;28;45675;-64
2022/03/03 09:15:51;;;;;;;3.88;2.42;;;17.90;27.70;20.60;93733.00;;;;10314690;28;45593;-64
2022/03/03 09:20:51;;;;;;;3.25;2.22;;;18.00;27.90;20.60;93739.00;;;;10315055;28;45600;-63
2022/03/03 09:25:52;;;;;;;3.60;2.17;;;18.00;28.00;20.60;93730.00;;;;10298027;28;47996;-63
2022/03/03 09:30:56;;;;;;;3.17;2.03;;;18.00;28.10;20.60;93706.00;;;;10315754;28;45368;-64
2022/03/03 09:35:56;;;;;;;3.97;2.15;;;17.90;28.40;20.60;93725.00;;;;10297534;28;46950;-64
2022/03/03 09:40:57;;;;;;;3.88;2.67;;;17.90;28.40;20.90;93711.00;;;;10314540;28;45450;-64
2022/03/03 09:45:58;;;;;;;4.65;2.53;;;18.60;27.40;20.80;93711.00;;;;10314175;28;45560;-63
2022/03/03 09:50:58;;;;;;;9.57;6.28;;;18.40;27.60;18.20;93714.00;;;;10313938;28;46934;-61
2022/03/03 09:55:59;;;;;;;4.88;3.65;;;15.90;30.40;19.80;93717.00;;;;10312998;28;45350;-60
2022/03/03 10:01:00;;;;;;;4.20;2.75;;;17.10;29.30;20.10;93703.00;;;;10313463;28;45279;-61
2022/03/03 10:06:02;;;;;;;5.35;3.50;;;17.60;27.80;20.20;93697.00;;;;10313471;28;47493;-61
2022/03/03 10:11:03;;;;;;;5.50;3.85;;;17.70;27.80;20.20;93715.00;;;;10313656;28;45152;-61
2022/03/03 10:16:04;;;;;;;5.80;3.55;;;17.70;28.30;20.30;93691.00;;;;10313936;28;45330;-61
2022/03/03 10:21:05;;;;;;;5.50;3.75;;;17.80;28.40;20.30;93706.00;;;;10314173;28;45220;-61
2022/03/03 10:26:10;;;;;;;5.57;3.75;;;17.90;28.10;20.40;93714.00;;;;10313843;28;46426;-61
2022/03/03 10:31:18;;;;;;;6.57;3.88;;;17.90;28.00;20.40;93702.00;;;;10312449;28;45821;-61
2022/03/03 10:36:24;;;;;;;5.28;3.53;;;17.90;28.00;20.30;93684.00;;;;10312008;28;45247;-63
2022/03/03 10:41:46;;;;;;;5.83;3.03;;;17.90;28.50;20.50;93693.00;;;;10322950;28;46010;-62
2022/03/03 10:47:07;;;;;;;5.03;2.83;;;18.00;29.00;20.40;93701.00;;;;10352079;28;46216;-59
2022/03/03 10:52:24;;;;;;;6.15;3.00;;;18.00;28.30;20.30;93679.00;;;;10334687;28;47879;-63
2022/03/03 10:57:58;;;;;;;6.60;2.90;;;17.90;29.10;20.30;93678.00;;;;10353212;28;46173;-64
2022/03/03 11:03:02;;;;;;;3.90;2.47;;;17.90;28.90;20.30;93674.00;;;;10353362;28;45578;-63
2022/03/03 11:08:02;;;;;;;3.70;2.30;;;17.90;28.80;20.30;93668.00;;;;10352460;28;45350;-63
2022/03/03 11:13:04;;;;;;;4.13;2.53;;;17.90;28.80;20.30;93674.00;;;;10352581;28;47121;-63
2022/03/03 11:18:06;;;;;;;4.10;2.50;;;17.90;28.80;20.30;93646.00;;;;10352652;28;46600;-63
2022/03/03 11:23:07;;;;;;;4.55;2.75;;;17.90;28.70;20.40;93654.00;;;;10352943;28;45164;-63
2022/03/03 11:28:15;;;;;;;4.55;2.40;;;17.90;28.70;20.40;93653.00;;;;10352545;28;45413;-63
2022/03/03 11:33:28;;;;;;;3.97;2.38;;;18.00;28.80;20.40;93634.00;;;;10336348;28;47230;-63
2022/03/03 11:38:56;;;;;;;4.93;2.50;;;18.00;28.80;20.40;93640.00;;;;10352120;28;45579;-63
2022/03/03 11:44:04;;;;;;;6.43;3.47;;;18.00;28.70;20.40;93639.00;;;;10351899;28;47072;-63
2022/03/03 11:49:16;;;;;;;12.75;4.90;;;18.00;28.70;20.40;93624.00;;;;10377795;28;45486;-63
2022/03/03 11:54:30;;;;;;;20.30;7.55;;;18.00;28.70;20.40;93622.00;;;;10375718;28;47730;-63
2022/03/03 11:59:34;;;;;;;13.40;6.32;;;18.00;28.70;20.50;93621.00;;;;10367568;28;47911;-62
2022/03/03 12:04:37;;;;;;;13.82;6.10;;;18.00;29.20;20.50;93595.00;;;;10319054;28;45451;-63
2022/03/03 12:09:41;;;;;;;12.95;5.50;;;18.00;28.70;20.50;93601.00;;;;10293631;28;47191;-62
2022/03/03 12:15:00;;;;;;;14.18;5.72;;;18.00;28.60;20.50;93595.00;;;;10309893;28;45315;-63
2022/03/03 12:20:35;;;;;;;10.95;5.30;;;18.00;28.60;20.50;93594.00;;;;10316649;28;45361;-63
2022/03/03 12:25:51;;;;;;;9.80;5.05;;;18.00;28.60;20.50;93602.00;;;;10327466;28;45383;-62
2022/03/03 12:30:54;;;;;;;11.80;5.13;;;18.10;28.70;20.50;93586.00;;;;10358695;28;45586;-63
2022/03/03 12:36:05;;;;;;;9.93;4.32;;;18.10;28.70;20.60;93580.00;;;;10320222;28;48283;-63
2022/03/03 12:41:07;;;;;;;9.07;4.45;;;18.10;28.70;20.60;93572.00;;;;10331518;28;48226;-63
2022/03/03 12:46:08;;;;;;;10.05;4.53;;;18.10;28.70;20.60;93577.00;;;;10317109;28;48076;-64
2022/03/03 12:51:09;;;;;;;7.45;3.97;;;18.10;28.60;20.60;93565.00;;;;10342907;28;45530;-63
2022/03/03 12:56:24;;;;;;;9.52;3.50;;;18.10;28.60;20.60;93561.00;;;;10346123;28;47105;-63
2022/03/03 13:01:25;;;;;;;7.30;3.78;;;18.10;28.70;20.60;93554.00;;;;10372670;28;45296;-63
2022/03/03 13:06:26;;;;;;;7.50;3.40;;;18.10;28.60;20.60;93554.00;;;;10372667;28;45745;-63
2022/03/03 13:11:27;;;;;;;6.60;3.28;;;18.20;28.70;20.60;93538.00;;;;10359409;28;47017;-63
2022/03/03 13:16:28;;;;;;;6.65;3.53;;;18.20;28.70;20.60;93541.00;;;;10336901;28;46441;-63
2022/03/03 13:21:32;;;;;;;5.78;3.22;;;18.20;28.70;20.70;93531.00;;;;10355985;28;45264;-63
2022/03/03 13:26:49;;;;;;;6.78;3.25;;;18.20;29.30;20.70;93543.00;;;;10338889;28;47210;-63
2022/03/03 13:31:53;;;;;;;6.55;3.22;;;18.20;28.80;20.70;93536.00;;;;10337224;28;47196;-63
2022/03/03 13:36:56;;;;;;;6.60;3.30;;;18.20;28.80;20.70;93535.00;;;;10354998;28;45583;-63
2022/03/03 13:42:11;;;;;;;7.18;3.15;;;18.20;28.90;20.70;93534.00;;;;10354607;28;45227;-63
2022/03/03 13:47:14;;;;;;;6.28;3.47;;;18.20;28.90;20.70;93540.00;;;;10354394;28;45244;-63
2022/03/03 13:52:36;;;;;;;5.45;3.20;;;18.20;28.90;20.70;93518.00;;;;10354303;28;46009;-63
2022/03/03 13:57:53;;;;;;;5.60;3.08;;;18.20;28.90;20.70;93524.00;;;;10337879;28;47049;-63
2022/03/03 14:03:00;;;;;;;6.65;3.20;;;18.20;28.90;20.70;93523.00;;;;10337275;28;47675;-63
2022/03/03 14:08:04;;;;;;;4.32;2.75;;;18.20;28.90;20.70;93526.00;;;;10354011;28;46463;-63
2022/03/03 14:13:06;;;;;;;5.65;2.72;;;18.20;29.00;20.70;93516.00;;;;10354248;28;45314;-63
2022/03/03 14:18:06;;;;;;;5.40;2.70;;;18.20;29.00;20.70;93506.00;;;;10337874;28;48287;-63
2022/03/03 14:23:07;;;;;;;5.45;2.90;;;18.20;29.10;20.70;93500.00;;;;10354159;28;47356;-62
2022/03/03 14:28:08;;;;;;;4.90;2.80;;;18.20;29.10;20.70;93504.00;;;;10337249;28;47300;-62
2022/03/03 14:33:08;;;;;;;4.80;2.72;;;18.20;29.10;20.70;93506.00;;;;10353239;28;48376;-62
2022/03/03 14:38:09;;;;;;;3.92;2.60;;;18.20;29.20;20.70;93486.00;;;;10353345;28;48037;-63
2022/03/03 14:43:10;;;;;;;5.32;2.65;;;18.20;29.20;20.70;93501.00;;;;10353494;28;45393;-62
2022/03/03 14:48:11;;;;;;;4.20;2.58;;;18.20;29.30;20.70;93484.00;;;;10353778;28;45180;-63
2022/03/03 14:53:12;;;;;;;4.20;2.20;;;18.20;29.30;20.70;93490.00;;;;10353881;28;45346;-63
2022/03/03 14:58:13;;;;;;;3.53;2.33;;;18.10;29.20;20.70;93495.00;;;;10353102;28;45206;-63
2022/03/03 15:03:13;;;;;;;4.60;2.50;;;18.20;29.30;20.70;93487.00;;;;10353351;28;45424;-62
2022/03/03 15:08:15;;;;;;;6.03;2.67;;;18.20;29.30;20.70;93488.00;;;;10354263;28;46458;-63
2022/03/03 15:13:15;;;;;;;4.18;2.00;;;18.20;29.30;20.70;93478.00;;;;10354011;28;45400;-63
2022/03/03 15:18:16;;;;;;;3.83;1.95;;;18.20;29.30;20.70;93499.00;;;;10354030;28;46237;-63
2022/03/03 15:23:17;;;;;;;5.13;2.30;;;18.20;29.30;20.70;93480.00;;;;10352549;28;46355;-63
2022/03/03 15:28:17;;;;;;;3.50;2.17;;;18.20;29.30;20.70;93493.00;;;;10352303;28;45293;-63
2022/03/03 15:38:37;;;;;;;4.80;1.77;;;18.20;29.30;20.70;93486.00;;;;10352655;28;45208;-63
2022/03/03 15:43:37;;;;;;;3.80;2.05;;;18.20;29.30;20.70;93473.00;;;;10351270;28;47403;-63
2022/03/03 15:48:38;;;;;;;5.10;2.10;;;18.20;29.30;20.70;93490.00;;;;10352589;28;45398;-63
2022/03/03 15:53:39;;;;;;;2.55;1.60;;;18.20;29.30;20.80;93481.00;;;;10357523;28;46144;-63
2022/03/03 15:58:39;;;;;;;3.13;1.90;;;18.20;29.40;20.80;93485.00;;;;10358050;28;48185;-63
2022/03/03 16:03:40;;;;;;;3.20;1.80;;;18.30;29.40;20.80;93485.00;;;;10358636;28;45686;-63
2022/03/03 16:08:41;;;;;;;4.13;2.22;;;18.30;29.30;20.80;93477.00;;;;10341126;28;47156;-62
2022/03/03 16:13:41;;;;;;;2.78;1.63;;;18.30;29.30;20.80;93491.00;;;;10357758;28;45607;-62
2022/03/03 16:18:44;;;;;;;2.70;1.70;;;18.30;29.30;20.80;93493.00;;;;10357776;28;46547;-63
2022/03/03 16:23:45;;;;;;;2.70;1.60;;;18.30;29.30;20.80;93480.00;;;;10357991;28;45473;-63
2022/03/03 16:28:46;;;;;;;3.55;1.42;;;18.30;29.20;20.80;93495.00;;;;10355153;28;45334;-63
2022/03/03 16:33:47;;;;;;;2.90;1.70;;;18.30;29.30;20.80;93491.00;;;;10357211;28;46686;-63
2022/03/03 16:38:48;;;;;;;2.85;1.60;;;18.30;29.20;20.80;93500.00;;;;10355499;28;45456;-63
2022/03/03 16:43:48;;;;;;;2.30;1.50;;;18.30;29.20;20.80;93498.00;;;;10350232;28;46478;-63
2022/03/03 16:48:49;;;;;;;2.55;1.40;;;18.30;29.20;20.80;93498.00;;;;10357976;28;45541;-63
2022/03/03 16:53:51;;;;;;;4.03;1.70;;;18.30;29.20;20.80;93497.00;;;;10352046;28;45417;-63
2022/03/03 16:58:52;;;;;;;2.75;1.67;;;18.20;29.10;20.80;93502.00;;;;10338724;28;47528;-63
2022/03/03 17:03:52;;;;;;;3.03;1.65;;;18.20;29.60;20.70;93505.00;;;;10355568;28;45428;-63
2022/03/03 17:08:55;;;;;;;3.95;1.60;;;18.20;29.20;20.70;93504.00;;;;10351911;28;45452;-63
2022/03/03 17:13:57;;;;;;;2.72;1.70;;;18.20;29.10;20.70;93504.00;;;;10329658;28;45325;-63
2022/03/03 17:18:58;;;;;;;4.32;1.75;;;18.20;29.60;20.70;93501.00;;;;10334495;28;46164;-64
2022/03/03 17:24:00;;;;;;;2.70;1.60;;;18.20;29.20;20.70;93500.00;;;;10361713;28;45399;-62
2022/03/03 17:29:00;;;;;;;3.13;1.52;;;18.10;29.10;20.70;93527.00;;;;10321500;28;45434;-64
2022/03/03 17:34:04;;;;;;;2.90;1.65;;;18.20;29.10;20.70;93525.00;;;;10351282;28;46015;-63
2022/03/03 17:39:06;;;;;;;2.50;1.65;;;18.20;29.10;20.70;93539.00;;;;10371470;28;45171;-63
2022/03/03 17:44:07;;;;;;;3.13;1.70;;;18.20;29.10;20.70;93551.00;;;;10371542;28;45337;-63
2022/03/03 17:49:12;;;;;;;2.50;1.60;;;18.20;29.10;20.70;93541.00;;;;10355754;28;46176;-63
2022/03/03 17:54:15;;;;;;;2.83;1.52;;;18.20;29.00;20.70;93538.00;;;;10354967;28;47226;-63
2022/03/03 17:59:16;;;;;;;4.78;1.90;;;18.10;29.00;20.70;93550.00;;;;10354156;28;47165;-63
2022/03/03 18:04:17;;;;;;;2.53;1.50;;;18.10;29.00;20.70;93547.00;;;;10354089;28;47009;-63
2022/03/03 18:09:17;;;;;;;2.75;1.70;;;18.20;29.00;20.70;93559.00;;;;10355757;28;46607;-63
2022/03/03 18:14:19;;;;;;;3.15;1.50;;;18.20;29.00;20.70;93564.00;;;;10369339;28;45286;-63
2022/03/03 18:19:20;;;;;;;2.58;1.63;;;18.20;29.00;20.70;93562.00;;;;10331821;28;47260;-63
2022/03/03 18:24:20;;;;;;;3.40;2.03;;;18.20;29.00;20.70;93562.00;;;;10313341;28;45364;-63
2022/03/03 18:29:21;;;;;;;3.00;1.80;;;18.20;28.90;20.70;93562.00;;;;10313044;28;45351;-63
2022/03/03 18:34:21;;;;;;;2.58;1.60;;;18.20;28.90;20.70;93574.00;;;;10313818;28;45081;-63
2022/03/03 18:39:22;;;;;;;2.28;1.75;;;18.20;28.90;20.70;93577.00;;;;10313970;28;45546;-63
2022/03/03 18:44:23;;;;;;;2.45;1.73;;;18.20;28.80;20.70;93575.00;;;;10312074;28;47275;-63
2022/03/03 18:49:23;;;;;;;3.60;2.00;;;18.10;28.80;20.70;93586.00;;;;10311871;28;46646;-63
2022/03/03 18:54:24;;;;;;;3.90;1.95;;;18.20;28.80;20.60;93578.00;;;;10313763;28;45390;-64
2022/03/03 18:59:25;;;;;;;2.92;2.00;;;18.20;28.80;20.60;93583.00;;;;10312586;28;46590;-64
2022/03/03 19:04:26;;;;;;;4.13;2.42;;;18.10;28.80;20.60;93575.00;;;;10311917;28;45579;-64
2022/03/03 19:09:26;;;;;;;3.28;2.30;;;18.10;28.80;20.60;93585.00;;;;10295125;28;48411;-63
2022/03/03 19:14:28;;;;;;;3.63;2.28;;;18.10;28.80;20.60;93589.00;;;;10336843;28;45628;-63
2022/03/03 19:19:29;;;;;;;3.78;2.33;;;18.10;28.80;20.60;93596.00;;;;10351814;28;47508;-63
2022/03/03 19:24:30;;;;;;;4.65;2.50;;;18.20;28.80;20.60;93598.00;;;;10345167;28;45328;-63
2022/03/03 19:29:32;;;;;;;3.28;2.33;;;18.10;28.70;20.60;93595.00;;;;10348680;28;47441;-63
2022/03/03 19:34:33;;;;;;;3.22;2.25;;;18.20;28.70;20.60;93602.00;;;;10356717;22;45575;-59
2022/03/03 19:39:35;;;;;;;4.03;2.65;;;18.10;28.70;20.60;93606.00;;;;10351390;28;45385;-60
2022/03/03 19:44:39;;;;;;;4.55;2.70;;;18.10;28.70;20.60;93599.00;;;;10313618;28;46901;-60
2022/03/03 19:49:39;;;;;;;4.80;2.70;;;18.10;28.70;20.60;93597.00;;;;10310221;28;45591;-59
2022/03/03 19:54:40;;;;;;;6.32;2.47;;;18.10;28.70;20.60;93592.00;;;;10312027;28;45395;-60
2022/03/03 19:59:41;;;;;;;3.38;2.40;;;18.20;28.70;20.60;93593.00;;;;10311269;28;45308;-60
2022/03/03 20:04:41;;;;;;;4.13;2.50;;;18.10;28.70;20.60;93604.00;;;;10311216;28;45277;-60
2022/03/03 20:15:01;;;;;;;4.57;2.47;;;18.10;28.70;20.60;93599.00;;;;10324215;28;45207;-60
2022/03/03 20:20:06;;;;;;;2.80;2.00;;;18.10;28.70;20.60;93605.00;;;;10310895;28;46433;-60
2022/03/03 20:25:09;;;;;;;3.60;2.30;;;18.20;28.80;20.60;93609.00;;;;10325427;28;45331;-59
2022/03/03 20:30:12;;;;;;;3.45;2.30;;;18.10;28.70;20.60;93604.00;;;;10325969;28;47970;-60
2022/03/03 20:35:14;;;;;;;2.95;1.95;;;18.10;28.70;20.60;93603.00;;;;10325362;28;45331;-59
2022/03/03 20:40:16;;;;;;;3.88;2.40;;;18.20;28.80;20.60;93606.00;;;;10330812;28;46896;-60
2022/03/03 20:45:17;;;;;;;3.65;2.00;;;18.20;28.80;20.60;93608.00;;;;10332825;28;45425;-60
2022/03/03 20:50:18;;;;;;;4.13;2.28;;;18.10;28.70;20.60;93607.00;;;;10316877;28;45447;-60
2022/03/03 20:55:19;;;;;;;3.90;2.30;;;18.10;28.70;20.60;93609.00;;;;10316901;28;46267;-60
2022/03/03 21:00:19;;;;;;;3.42;2.22;;;18.10;28.70;20.60;93631.00;;;;10332179;28;45495;-60
2022/03/03 21:05:20;;;;;;;3.08;2.13;;;18.10;28.70;20.60;93634.00;;;;10316582;28;45315;-58
2022/03/03 21:10:21;;;;;;;4.53;2.30;;;18.10;28.70;20.60;93655.00;;;;10330862;28;47000;-60
2022/03/03 21:15:22;;;;;;;4.28;2.50;;;18.10;28.70;20.60;93640.00;;;;10316349;28;45458;-60
2022/03/03 21:20:24;;;;;;;3.85;2.38;;;18.10;28.60;20.60;93630.00;;;;10331011;28;45279;-59
2022/03/03 21:25:25;;;;;;;5.70;2.58;;;18.10;28.60;20.60;93647.00;;;;10330525;28;45509;-60
2022/03/03 21:30:25;;;;;;;3.85;2.80;;;18.10;28.60;20.60;93631.00;;;;10332000;28;46701;-60
2022/03/03 21:35:26;;;;;;;3.60;2.50;;;18.10;28.50;20.60;93628.00;;;;10329939;28;45665;-60
2022/03/03 21:40:28;;;;;;;3.33;2.40;;;18.10;28.50;20.60;93633.00;;;;10315643;28;45297;-59
2022/03/03 21:45:28;;;;;;;4.97;2.88;;;18.10;28.50;20.60;93630.00;;;;10330713;28;46296;-60
2022/03/03 21:50:29;;;;;;;3.65;2.50;;;18.10;28.50;20.60;93623.00;;;;10292056;28;47733;-60
2022/03/03 21:55:32;;;;;;;5.05;2.75;;;18.10;28.40;20.50;93623.00;;;;10284592;28;45289;-60
2022/03/03 22:00:33;;;;;;;3.90;2.70;;;18.10;28.40;20.50;93625.00;;;;10270184;28;47973;-60
2022/03/03 22:05:34;;;;;;;3.58;2.38;;;18.10;28.40;20.50;93623.00;;;;10273125;28;45405;-60
2022/03/03 22:10:35;;;;;;;4.38;3.10;;;18.00;28.40;20.50;93605.00;;;;10289375;28;45269;-60
2022/03/03 22:15:36;;;;;;;3.70;2.75;;;18.00;28.40;20.50;93615.00;;;;10288694;28;45150;-59
2022/03/03 22:20:38;;;;;;;3.95;2.65;;;18.00;28.40;20.50;93615.00;;;;10274174;28;45602;-59